createdAt,value
2023-05-13T00:00:29.794Z,3.40
2023-05-13T00:02:56.488Z,3.17
2023-05-13T00:05:22.953Z,3.33
2023-05-13T00:07:49.362Z,3.00
2023-05-13T00:10:16.550Z,3.00
2023-05-13T00:12:43.757Z,3.00
2023-05-13T00:15:10.656Z,3.95
2023-05-13T00:17:37.257Z,3.25
2023-05-13T00:20:04.346Z,3.08
2023-05-13T00:22:30.711Z,3.10
2023-05-13T00:24:57.077Z,3.30
2023-05-13T00:27:23.537Z,2.80
2023-05-13T00:29:49.972Z,3.28
2023-05-13T00:32:16.424Z,3.00
2023-05-13T00:34:42.854Z,3.17
2023-05-13T00:37:10.458Z,2.30
2023-05-13T00:39:36.850Z,2.45
2023-05-13T00:42:06.342Z,2.33
2023-05-13T00:44:32.799Z,2.80
2023-05-13T00:46:59.499Z,2.60
2023-05-13T00:49:25.945Z,2.80
2023-05-13T00:51:55.101Z,2.58
2023-05-13T00:54:21.600Z,2.58
2023-05-13T00:56:47.978Z,2.80
2023-05-13T00:59:14.398Z,2.75
2023-05-13T01:02:19.370Z,2.67
2023-05-13T01:05:13.649Z,3.22
2023-05-13T01:07:54.497Z,2.85
2023-05-13T01:10:31.872Z,2.88
2023-05-13T01:13:04.087Z,2.88
2023-05-13T01:15:31.753Z,3.43
2023-05-13T01:18:06.291Z,3.60
2023-05-13T01:20:34.451Z,3.13
2023-05-13T01:23:00.966Z,3.28
2023-05-13T01:25:27.438Z,3.28
2023-05-13T01:27:54.214Z,3.70
2023-05-13T01:30:21.713Z,3.35
2023-05-13T01:32:49.213Z,3.53
2023-05-13T01:35:17.088Z,3.80
2023-05-13T01:37:43.735Z,3.67
2023-05-13T01:40:24.082Z,3.30
2023-05-13T01:42:51.262Z,3.47
2023-05-13T01:45:18.293Z,3.58
2023-05-13T01:47:44.769Z,3.00
2023-05-13T01:50:11.272Z,4.00
2023-05-13T01:52:37.626Z,3.83
2023-05-13T01:55:04.395Z,3.88
2023-05-13T01:57:30.808Z,3.92
2023-05-13T01:59:57.285Z,3.80
2023-05-13T02:02:23.717Z,3.72
2023-05-13T02:04:50.582Z,4.13
2023-05-13T02:07:17.033Z,4.20
2023-05-13T02:09:43.425Z,4.22
2023-05-13T02:12:09.882Z,3.88
2023-05-13T02:14:37.624Z,4.18
2023-05-13T02:17:04.595Z,3.90
2023-05-13T02:19:30.981Z,3.90
2023-05-13T02:21:57.495Z,3.70
2023-05-13T02:24:23.874Z,4.50
2023-05-13T02:26:50.305Z,4.00
2023-05-13T02:29:16.689Z,4.43
2023-05-13T02:31:43.251Z,4.53
2023-05-13T02:34:09.796Z,4.40
2023-05-13T02:36:36.528Z,4.07
2023-05-13T02:39:03.189Z,5.10
2023-05-13T02:41:29.655Z,4.80
2023-05-13T02:43:56.021Z,4.65
2023-05-13T02:46:22.454Z,4.85
2023-05-13T02:48:49.218Z,4.13
2023-05-13T02:51:15.637Z,4.45
2023-05-13T02:53:42.156Z,4.50
2023-05-13T02:56:08.538Z,4.47
2023-05-13T02:58:34.931Z,4.95
2023-05-13T03:01:01.344Z,4.97
2023-05-13T03:03:29.193Z,4.93
2023-05-13T03:05:55.861Z,4.90
2023-05-13T03:08:22.262Z,4.57
2023-05-13T03:10:48.883Z,4.75
2023-05-13T03:13:15.492Z,5.18
2023-05-13T03:15:44.087Z,4.93
2023-05-13T03:18:10.882Z,5.60
2023-05-13T03:20:37.307Z,5.07
2023-05-13T03:23:03.842Z,5.25
2023-05-13T03:25:30.249Z,5.50
2023-05-13T03:27:56.656Z,5.95
2023-05-13T03:30:23.351Z,5.07
2023-05-13T03:32:50.086Z,5.13
2023-05-13T03:35:16.511Z,5.07
2023-05-13T03:37:42.877Z,5.68
2023-05-13T03:40:09.682Z,5.47
2023-05-13T03:42:36.144Z,5.83
2023-05-13T03:45:02.680Z,5.72
2023-05-13T03:47:29.109Z,6.07
2023-05-13T03:49:55.491Z,5.95
2023-05-13T03:52:21.892Z,6.40
2023-05-13T03:54:48.239Z,5.30
2023-05-13T03:57:14.756Z,6.45
2023-05-13T03:59:41.173Z,6.32
2023-05-13T04:02:07.559Z,6.28
2023-05-13T04:04:34.171Z,6.10
2023-05-13T04:07:00.659Z,5.90
2023-05-13T04:09:27.053Z,5.90
2023-05-13T04:11:53.416Z,5.38
2023-05-13T04:14:19.826Z,6.43
2023-05-13T04:16:46.314Z,6.70
2023-05-13T04:19:12.803Z,6.40
2023-05-13T04:21:39.267Z,6.20
2023-05-13T04:24:06.624Z,6.07
2023-05-13T04:26:33.078Z,6.30
2023-05-13T04:28:59.480Z,6.10
2023-05-13T04:31:26.010Z,5.70
2023-05-13T04:33:52.463Z,6.28
2023-05-13T04:36:18.931Z,6.22
2023-05-13T04:38:45.344Z,6.43
2023-05-13T04:41:11.748Z,6.10
2023-05-13T04:43:38.118Z,6.27
2023-05-13T04:46:04.696Z,6.38
2023-05-13T04:48:31.200Z,5.72
2023-05-13T04:50:58.457Z,6.68
2023-05-13T04:53:25.388Z,6.25
2023-05-13T04:55:57.070Z,5.43
2023-05-13T04:58:24.833Z,6.18
2023-05-13T05:00:51.307Z,6.28
2023-05-13T05:03:17.720Z,6.13
2023-05-13T05:05:44.146Z,5.90
2023-05-13T05:08:10.745Z,5.93
2023-05-13T05:10:37.194Z,5.90
2023-05-13T05:13:03.749Z,6.13
2023-05-13T05:15:30.346Z,5.78
2023-05-13T05:17:56.994Z,5.82
2023-05-13T05:20:24.408Z,5.17
2023-05-13T05:22:50.916Z,5.75
2023-05-13T05:25:17.352Z,6.32
2023-05-13T05:27:43.769Z,5.72
2023-05-13T05:30:10.835Z,6.20
2023-05-13T05:32:37.425Z,5.73
2023-05-13T05:35:04.283Z,5.53
2023-05-13T05:37:30.750Z,5.90
2023-05-13T05:39:57.149Z,6.15
2023-05-13T05:42:23.613Z,5.60
2023-05-13T05:44:50.224Z,6.10
2023-05-13T05:47:16.611Z,5.65
2023-05-13T05:49:43.261Z,5.40
2023-05-13T05:52:11.160Z,5.85
2023-05-13T05:54:37.645Z,6.25
2023-05-13T05:57:04.598Z,5.67
2023-05-13T05:59:31.100Z,6.50
2023-05-13T06:01:57.528Z,5.82
2023-05-13T06:04:24.773Z,6.50
2023-05-13T06:06:51.337Z,6.32
2023-05-13T06:09:17.823Z,6.40
2023-05-13T06:11:44.198Z,6.35
2023-05-13T06:14:10.589Z,6.95
2023-05-13T06:16:37.000Z,6.68
2023-05-13T06:19:03.409Z,6.53
2023-05-13T06:21:31.615Z,6.37
2023-05-13T06:23:58.069Z,6.10
2023-05-13T06:26:24.566Z,6.78
2023-05-13T06:28:51.104Z,6.20
2023-05-13T06:31:17.774Z,6.53
2023-05-13T06:33:44.194Z,6.27
2023-05-13T06:36:10.618Z,6.32
2023-05-13T06:38:37.064Z,6.40
2023-05-13T06:41:03.657Z,6.20
2023-05-13T06:43:30.039Z,6.57
2023-05-13T06:45:56.665Z,5.60
2023-05-13T06:48:23.079Z,6.30
2023-05-13T06:50:49.805Z,5.88
2023-05-13T06:53:16.271Z,6.35
2023-05-13T06:55:42.760Z,7.00
2023-05-13T06:58:09.887Z,5.30
2023-05-13T07:00:37.687Z,6.15
2023-05-13T07:03:05.775Z,6.07
2023-05-13T07:05:33.078Z,6.15
2023-05-13T07:07:59.993Z,6.00
2023-05-13T07:10:27.060Z,5.97
2023-05-13T07:12:53.511Z,6.10
2023-05-13T07:15:20.165Z,6.38
2023-05-13T07:17:46.876Z,6.57
2023-05-13T07:20:13.467Z,6.25
2023-05-13T07:22:39.869Z,5.37
2023-05-13T07:25:06.750Z,5.95
2023-05-13T07:27:33.133Z,5.38
2023-05-13T07:29:59.561Z,6.18
2023-05-13T07:32:25.970Z,5.57
2023-05-13T07:34:52.396Z,5.87
2023-05-13T07:37:18.782Z,5.43
2023-05-13T07:39:45.206Z,6.63
2023-05-13T07:42:11.626Z,6.15
2023-05-13T07:44:38.085Z,6.18
2023-05-13T07:47:04.595Z,5.83
2023-05-13T07:49:31.047Z,5.85
2023-05-13T07:51:57.656Z,5.57
2023-05-13T07:54:24.092Z,5.18
2023-05-13T07:56:50.626Z,6.68
2023-05-13T07:59:18.232Z,6.30
2023-05-13T08:01:44.761Z,5.50
2023-05-13T08:04:11.444Z,6.03
2023-05-13T08:06:37.996Z,5.47
2023-05-13T08:09:04.720Z,5.55
2023-05-13T08:11:31.150Z,5.37
2023-05-13T08:13:57.706Z,5.57
2023-05-13T08:16:24.191Z,6.32
2023-05-13T08:18:50.656Z,5.35
2023-05-13T08:21:17.300Z,5.35
2023-05-13T08:23:45.891Z,5.17
2023-05-13T08:26:13.368Z,5.35
2023-05-13T08:28:39.976Z,5.53
2023-05-13T08:31:06.480Z,5.20
2023-05-13T08:33:33.143Z,5.70
2023-05-13T08:36:00.584Z,4.90
2023-05-13T08:38:27.289Z,5.45
2023-05-13T08:40:53.928Z,5.95
2023-05-13T08:43:23.619Z,4.88
2023-05-13T08:45:53.333Z,5.15
2023-05-13T08:48:20.367Z,5.03
2023-05-13T08:50:47.355Z,5.60
2023-05-13T08:53:16.440Z,5.10
2023-05-13T08:55:42.824Z,5.50
2023-05-13T08:58:09.678Z,6.25
2023-05-13T09:00:36.121Z,5.40
2023-05-13T09:03:02.956Z,5.88
2023-05-13T09:05:29.615Z,5.35
2023-05-13T09:07:57.227Z,5.13
2023-05-13T09:10:23.960Z,6.03
2023-05-13T09:12:55.092Z,4.83
2023-05-13T09:15:24.026Z,5.95
2023-05-13T09:18:03.341Z,5.55
2023-05-13T09:20:30.704Z,5.82
2023-05-13T09:22:59.921Z,4.85
2023-05-13T09:25:27.451Z,5.17
2023-05-13T09:27:57.728Z,5.68
2023-05-13T09:30:26.061Z,5.53
2023-05-13T09:33:10.094Z,5.18
2023-05-13T09:35:41.752Z,4.75
2023-05-13T09:38:29.276Z,5.37
2023-05-13T09:40:58.496Z,5.38
2023-05-13T09:43:28.245Z,5.38
2023-05-13T09:45:56.698Z,5.28
2023-05-13T09:48:25.811Z,5.25
2023-05-13T09:50:53.180Z,5.67
2023-05-13T09:53:21.213Z,6.00
2023-05-13T09:55:53.182Z,6.03
2023-05-13T09:58:20.422Z,5.22
2023-05-13T10:00:47.907Z,5.97
2023-05-13T10:03:15.191Z,5.77
2023-05-13T10:05:42.388Z,5.32
2023-05-13T10:08:10.526Z,5.25
2023-05-13T10:10:37.825Z,6.32
2023-05-13T10:13:25.330Z,5.47
2023-05-13T10:15:53.217Z,5.63
2023-05-13T10:18:21.036Z,5.65
2023-05-13T10:20:52.941Z,5.63
2023-05-13T10:23:20.314Z,5.63
2023-05-13T10:25:56.344Z,5.90
2023-05-13T10:28:24.809Z,5.37
2023-05-13T10:30:51.645Z,5.57
2023-05-13T10:33:18.485Z,5.60
2023-05-13T10:36:01.741Z,5.72
2023-05-13T10:38:43.447Z,6.30
2023-05-13T10:41:47.520Z,5.13
2023-05-13T10:44:14.158Z,5.57
2023-05-13T10:46:43.256Z,5.22
2023-05-13T10:49:16.111Z,5.78
2023-05-13T10:51:49.883Z,4.93
2023-05-13T10:54:20.743Z,4.87
2023-05-13T10:56:57.123Z,4.68
2023-05-13T10:59:23.556Z,5.07
2023-05-13T11:01:50.073Z,4.63
2023-05-13T11:04:18.183Z,4.95
2023-05-13T11:06:46.467Z,3.83
2023-05-13T11:09:31.617Z,4.68
2023-05-13T11:11:59.988Z,3.72
2023-05-13T11:14:28.022Z,4.63
2023-05-13T11:17:08.520Z,3.90
2023-05-13T11:19:37.771Z,4.10
2023-05-13T11:22:24.722Z,3.50
2023-05-13T11:25:09.230Z,3.08
2023-05-13T11:27:42.623Z,3.65
2023-05-13T11:30:22.978Z,4.30
2023-05-13T11:32:57.096Z,3.40
2023-05-13T11:35:24.723Z,3.47
2023-05-13T11:37:51.617Z,3.25
2023-05-13T11:40:36.330Z,3.10
2023-05-13T11:43:05.107Z,2.95
2023-05-13T11:45:32.095Z,3.20
2023-05-13T11:47:59.069Z,3.20
2023-05-13T11:50:30.644Z,3.00
2023-05-13T11:53:01.424Z,2.83
2023-05-13T11:55:29.915Z,2.67
2023-05-13T11:57:56.950Z,2.73
2023-05-13T12:00:31.004Z,2.30
2023-05-13T12:02:58.858Z,3.47
2023-05-13T12:05:26.693Z,3.17
2023-05-13T12:07:57.987Z,2.85
2023-05-13T12:10:25.045Z,2.50
2023-05-13T12:12:51.868Z,3.72
2023-05-13T12:15:20.537Z,2.80
2023-05-13T12:17:48.309Z,2.47
2023-05-13T12:20:18.464Z,2.65
2023-05-13T12:22:44.872Z,2.80
2023-05-13T12:25:36.344Z,2.40
2023-05-13T12:28:23.143Z,2.53
2023-05-13T12:30:57.127Z,2.50
2023-05-13T12:33:29.205Z,2.30
2023-05-13T12:36:18.157Z,2.37
2023-05-13T12:39:06.021Z,2.17
2023-05-13T12:41:34.947Z,2.33
2023-05-13T12:44:04.602Z,1.77
2023-05-13T12:46:31.493Z,2.17
2023-05-13T12:49:02.854Z,2.10
2023-05-13T12:51:30.054Z,2.20
2023-05-13T12:53:57.796Z,2.13
2023-05-13T12:56:25.562Z,2.28
2023-05-13T12:58:53.856Z,2.08
2023-05-13T13:01:20.917Z,2.30
2023-05-13T13:03:47.721Z,2.17
2023-05-13T13:06:15.019Z,2.33
2023-05-13T13:08:41.410Z,2.45
2023-05-13T13:11:08.087Z,2.20
2023-05-13T13:13:36.676Z,2.80
2023-05-13T13:16:05.073Z,2.38
2023-05-13T13:18:31.532Z,2.38
2023-05-13T13:20:57.903Z,2.63
2023-05-13T13:23:24.679Z,2.40
2023-05-13T13:25:51.078Z,2.53
2023-05-13T13:28:17.544Z,2.38
2023-05-13T13:30:46.803Z,2.30
2023-05-13T13:33:17.037Z,2.10
2023-05-13T13:35:44.767Z,2.20
2023-05-13T13:38:11.375Z,2.03
2023-05-13T13:40:37.893Z,2.05
2023-05-13T13:43:08.046Z,2.38
2023-05-13T13:45:35.515Z,2.55
2023-05-13T13:48:02.325Z,1.90
2023-05-13T13:50:29.005Z,2.07
2023-05-13T13:52:55.876Z,2.20
2023-05-13T13:55:23.327Z,1.73
2023-05-13T13:57:49.906Z,2.00
2023-05-13T14:00:16.681Z,2.10
2023-05-13T14:02:44.098Z,2.50
2023-05-13T14:05:11.795Z,2.15
2023-05-13T14:07:38.442Z,2.00
2023-05-13T14:10:06.088Z,1.88
2023-05-13T14:12:32.599Z,1.92
2023-05-13T14:14:59.290Z,1.77
2023-05-13T14:17:25.864Z,2.00
2023-05-13T14:19:54.980Z,2.70
2023-05-13T14:22:24.557Z,1.98
2023-05-13T14:24:52.247Z,1.85
2023-05-13T14:27:19.156Z,1.90
2023-05-13T14:29:47.499Z,2.13
2023-05-13T14:32:14.247Z,1.83
2023-05-13T14:34:40.634Z,1.98
2023-05-13T14:37:07.392Z,2.00
2023-05-13T14:39:33.799Z,1.60
2023-05-13T14:42:00.711Z,1.60
2023-05-13T14:44:27.103Z,2.03
2023-05-13T14:46:53.591Z,1.90
2023-05-13T14:49:20.001Z,1.88
2023-05-13T14:51:46.362Z,1.67
2023-05-13T14:54:12.829Z,2.17
2023-05-13T14:56:39.323Z,1.60
2023-05-13T14:59:05.718Z,1.73
2023-05-13T15:01:32.396Z,1.48
2023-05-13T15:03:59.680Z,1.60
2023-05-13T15:06:27.005Z,1.85
2023-05-13T15:08:53.942Z,1.30
2023-05-13T15:11:20.934Z,1.52
2023-05-13T15:13:47.338Z,1.70
2023-05-13T15:16:13.766Z,1.40
2023-05-13T15:18:40.198Z,1.52
2023-05-13T15:21:06.759Z,2.63
2023-05-13T15:23:33.446Z,1.58
2023-05-13T15:25:59.829Z,2.10
2023-05-13T15:28:26.392Z,1.47
2023-05-13T15:30:52.896Z,1.98
2023-05-13T15:33:19.321Z,1.35
2023-05-13T15:35:46.058Z,1.75
2023-05-13T15:38:12.528Z,1.70
2023-05-13T15:40:39.095Z,1.80
2023-05-13T15:43:05.476Z,1.70
2023-05-13T15:45:31.945Z,1.85
2023-05-13T15:47:58.390Z,1.60
2023-05-13T15:50:25.994Z,1.63
2023-05-13T15:52:54.327Z,1.33
2023-05-13T15:55:21.106Z,1.60
2023-05-13T15:57:48.885Z,1.40
2023-05-13T16:00:17.382Z,2.42
2023-05-13T16:02:44.276Z,2.88
2023-05-13T16:05:15.752Z,2.57
2023-05-13T16:07:44.225Z,2.42
2023-05-13T16:10:11.278Z,1.25
2023-05-13T16:12:37.811Z,2.60
2023-05-13T16:15:04.881Z,2.92
2023-05-13T16:17:31.351Z,3.13
2023-05-13T16:19:57.769Z,2.97
2023-05-13T16:22:28.987Z,2.85
2023-05-13T16:25:13.816Z,3.25
2023-05-13T16:27:42.866Z,3.30
2023-05-13T16:30:10.427Z,3.10
2023-05-13T16:32:37.155Z,3.10
2023-05-13T16:35:03.881Z,2.95
2023-05-13T16:37:31.254Z,3.05
2023-05-13T16:39:57.738Z,3.22
2023-05-13T16:42:24.181Z,3.30
2023-05-13T16:44:50.613Z,3.03
2023-05-13T16:47:17.171Z,3.28
2023-05-13T16:49:43.711Z,3.30
2023-05-13T16:52:10.104Z,3.38
2023-05-13T16:54:36.644Z,2.60
2023-05-13T16:57:03.187Z,2.80
2023-05-13T16:59:29.642Z,3.33
2023-05-13T17:01:56.112Z,3.20
2023-05-13T17:04:22.729Z,2.80
2023-05-13T17:06:49.277Z,2.97
2023-05-13T17:09:16.169Z,3.15
2023-05-13T17:11:43.439Z,2.85
2023-05-13T17:14:09.917Z,2.50
2023-05-13T17:16:36.422Z,2.80
2023-05-13T17:19:02.944Z,2.70
2023-05-13T17:21:29.428Z,2.60
2023-05-13T17:23:55.822Z,3.08
2023-05-13T17:26:22.338Z,3.28
2023-05-13T17:28:49.671Z,2.85
2023-05-13T17:31:16.263Z,3.30
2023-05-13T17:33:42.691Z,3.08
2023-05-13T17:36:09.234Z,3.53
2023-05-13T17:38:35.901Z,3.40
2023-05-13T17:41:02.439Z,3.55
2023-05-13T17:43:28.836Z,3.23
2023-05-13T17:45:55.388Z,3.75
2023-05-13T17:48:22.251Z,3.47
2023-05-13T17:50:48.734Z,3.30
2023-05-13T17:53:15.256Z,4.18
2023-05-13T17:55:41.608Z,3.50
2023-05-13T17:58:08.003Z,3.15
2023-05-13T18:00:34.441Z,3.22
2023-05-13T18:03:00.821Z,3.45
2023-05-13T18:05:27.589Z,3.55
2023-05-13T18:07:53.994Z,3.07
2023-05-13T18:10:20.663Z,3.05
2023-05-13T18:12:47.384Z,3.20
2023-05-13T18:15:13.866Z,2.97
2023-05-13T18:17:40.290Z,3.08
2023-05-13T18:20:07.279Z,3.30
2023-05-13T18:22:34.780Z,2.65
2023-05-13T18:25:01.200Z,3.20
2023-05-13T18:27:27.705Z,2.90
2023-05-13T18:29:54.170Z,3.50
2023-05-13T18:32:20.574Z,3.10
2023-05-13T18:34:47.063Z,3.00
2023-05-13T18:37:15.060Z,3.08
2023-05-13T18:39:43.417Z,2.80
2023-05-13T18:42:09.830Z,3.03
2023-05-13T18:44:36.405Z,2.53
2023-05-13T18:47:04.721Z,3.03
2023-05-13T18:49:32.296Z,3.00
2023-05-13T18:51:59.142Z,3.13
2023-05-13T18:54:27.765Z,3.17
2023-05-13T18:56:54.297Z,3.00
2023-05-13T18:59:20.678Z,3.17
2023-05-13T19:01:47.341Z,3.03
2023-05-13T19:04:15.197Z,3.15
2023-05-13T19:06:41.801Z,3.15
2023-05-13T19:09:08.224Z,2.50
2023-05-13T19:11:34.757Z,3.03
2023-05-13T19:14:01.231Z,3.70
2023-05-13T19:16:27.816Z,2.83
2023-05-13T19:18:54.346Z,3.15
2023-05-13T19:21:23.204Z,3.00
2023-05-13T19:23:50.060Z,3.42
2023-05-13T19:26:16.493Z,2.83
2023-05-13T19:28:46.176Z,3.58
2023-05-13T19:31:12.670Z,2.90
2023-05-13T19:33:39.195Z,2.83
2023-05-13T19:36:06.631Z,2.80
2023-05-13T19:38:33.915Z,3.03
2023-05-13T19:41:00.440Z,3.15
2023-05-13T19:43:26.968Z,3.22
2023-05-13T19:45:55.468Z,2.87
2023-05-13T19:48:22.045Z,3.08
2023-05-13T19:50:48.545Z,3.67
2023-05-13T19:53:15.202Z,3.10
2023-05-13T19:55:41.747Z,3.38
2023-05-13T19:58:08.479Z,3.90
2023-05-13T20:00:34.916Z,4.13
2023-05-13T20:03:01.362Z,3.35
2023-05-13T20:05:27.837Z,3.22
2023-05-13T20:07:54.249Z,4.13
2023-05-13T20:10:21.003Z,4.37
2023-05-13T20:12:47.594Z,4.22
2023-05-13T20:15:14.723Z,4.05
2023-05-13T20:17:42.256Z,4.35
2023-05-13T20:20:09.017Z,4.75
2023-05-13T20:22:35.386Z,4.50
2023-05-13T20:25:01.828Z,4.85
2023-05-13T20:27:28.306Z,4.78
2023-05-13T20:29:55.818Z,4.55
2023-05-13T20:32:24.567Z,4.75
2023-05-13T20:34:54.783Z,4.67
2023-05-13T20:37:23.998Z,4.60
2023-05-13T20:39:51.523Z,4.57
2023-05-13T20:42:18.065Z,4.78
2023-05-13T20:44:46.173Z,5.07
2023-05-13T20:47:13.269Z,4.93
2023-05-13T20:49:39.820Z,5.18
2023-05-13T20:52:08.504Z,5.38
2023-05-13T20:54:36.360Z,5.28
2023-05-13T20:57:03.535Z,6.00
2023-05-13T20:59:30.654Z,5.97
2023-05-13T21:01:57.356Z,5.72
2023-05-13T21:04:25.439Z,5.22
2023-05-13T21:06:52.517Z,6.28
2023-05-13T21:09:18.969Z,6.30
2023-05-13T21:11:45.869Z,6.23
2023-05-13T21:14:12.279Z,6.00
2023-05-13T21:16:38.727Z,6.22
2023-05-13T21:19:05.171Z,6.00
2023-05-13T21:21:32.102Z,6.50
2023-05-13T21:23:58.523Z,6.53
2023-05-13T21:26:25.168Z,6.28
2023-05-13T21:28:51.619Z,6.30
2023-05-13T21:31:18.008Z,6.30
2023-05-13T21:33:44.468Z,6.07
2023-05-13T21:36:10.860Z,6.03
2023-05-13T21:38:37.238Z,6.25
2023-05-13T21:41:03.765Z,6.68
2023-05-13T21:43:30.233Z,6.65
2023-05-13T21:45:56.630Z,6.78
2023-05-13T21:48:23.130Z,6.60
2023-05-13T21:50:49.609Z,7.18
2023-05-13T21:53:16.165Z,6.57
2023-05-13T21:55:43.949Z,6.93
2023-05-13T21:58:10.429Z,7.30
2023-05-13T22:00:36.876Z,7.30
2023-05-13T22:03:03.551Z,7.07
2023-05-13T22:05:30.493Z,7.50
2023-05-13T22:07:57.107Z,6.90
2023-05-13T22:10:23.720Z,8.23
2023-05-13T22:12:50.352Z,6.80
2023-05-13T22:15:16.872Z,7.18
2023-05-13T22:17:43.463Z,7.32
2023-05-13T22:20:10.430Z,6.68
2023-05-13T22:22:36.863Z,7.28
2023-05-13T22:25:03.704Z,7.07
2023-05-13T22:27:30.124Z,7.20
2023-05-13T22:29:56.789Z,7.70
2023-05-13T22:32:23.436Z,7.50
2023-05-13T22:34:49.826Z,7.07
2023-05-13T22:37:16.531Z,7.37
2023-05-13T22:39:43.994Z,7.30
2023-05-13T22:42:10.375Z,7.53
2023-05-13T22:44:36.764Z,7.63
2023-05-13T22:47:03.404Z,7.72
2023-05-13T22:49:29.819Z,7.00
2023-05-13T22:51:56.501Z,7.63
2023-05-13T22:54:22.957Z,8.52
2023-05-13T22:56:49.334Z,7.55
2023-05-13T22:59:15.789Z,7.88
2023-05-13T23:01:42.254Z,7.47
2023-05-13T23:04:08.746Z,7.65
2023-05-13T23:06:35.399Z,8.27
2023-05-13T23:09:02.158Z,8.00
2023-05-13T23:11:28.569Z,8.70
2023-05-13T23:13:54.983Z,8.07
2023-05-13T23:16:21.400Z,9.10
2023-05-13T23:18:47.938Z,9.30
2023-05-13T23:21:14.421Z,8.65
2023-05-13T23:23:40.815Z,8.30
2023-05-13T23:26:07.217Z,8.80
2023-05-13T23:28:33.641Z,8.60
2023-05-13T23:31:00.056Z,9.30
2023-05-13T23:33:26.611Z,9.77
2023-05-13T23:35:54.249Z,9.05
2023-05-13T23:38:20.856Z,9.77
2023-05-13T23:40:47.332Z,8.70
2023-05-13T23:43:13.845Z,8.68
2023-05-13T23:45:40.378Z,9.43
2023-05-13T23:48:06.962Z,8.27
2023-05-13T23:50:33.433Z,9.47
2023-05-13T23:52:59.816Z,8.80
2023-05-13T23:55:26.202Z,8.65
2023-05-13T23:57:52.567Z,8.80
